Time;durP1;ratioP1;P1;durP2;ratioP2;P2;SDS_P1;SDS_P2;PMS_P1;PMS_P2;Temp;Humidity;BMP_temperature;BMP_pressure;BME280_temperature;BME280_humidity;BME280_pressure;Samples;Min_cycle;Max_cycle;Signal;HPM_P1;HPM_P2
2023/10/27 00:00:58;;;;;;;5.27;1.60;;;11.00;62.20;;;;;;5042012;28;46723;-83
2023/10/27 00:03:24;;;;;;;7.30;1.80;;;11.00;62.10;;;;;;5043044;28;46397;-83
2023/10/27 00:05:50;;;;;;;12.00;5.37;;;11.00;62.10;;;;;;5038210;28;46395;-79
2023/10/27 00:08:16;;;;;;;25.87;10.97;;;10.90;61.90;;;;;;5028307;28;46370;-81
2023/10/27 00:10:41;;;;;;;5.53;1.83;;;11.00;61.60;;;;;;5029780;28;47062;-81
2023/10/27 00:13:07;;;;;;;15.87;7.67;;;11.00;61.30;;;;;;5028827;28;46488;-83
2023/10/27 00:15:33;;;;;;;7.40;3.93;;;11.10;61.70;;;;;;5031728;28;46600;-82
2023/10/27 00:17:59;;;;;;;8.83;3.67;;;11.00;61.40;;;;;;5030471;28;46500;-81
2023/10/27 00:20:26;;;;;;;8.13;1.70;;;11.00;61.20;;;;;;5035791;28;48141;-79
2023/10/27 00:22:51;;;;;;;6.00;1.47;;;11.10;61.30;;;;;;5029846;28;46388;-83
2023/10/27 00:25:17;;;;;;;7.50;3.40;;;11.00;61.10;;;;;;5027059;28;46521;-82
2023/10/27 00:27:43;;;;;;;9.20;2.10;;;10.90;61.40;;;;;;5030258;28;46519;-81
2023/10/27 00:30:09;;;;;;;7.43;2.17;;;11.00;61.20;;;;;;5029255;28;48461;-81
2023/10/27 00:32:36;;;;;;;11.43;2.90;;;10.90;61.20;;;;;;5028807;28;46614;-81
2023/10/27 00:35:04;;;;;;;9.93;2.67;;;10.90;61.50;;;;;;5028408;28;46427;-81
2023/10/27 00:37:33;;;;;;;11.60;2.90;;;10.90;61.30;;;;;;5031639;28;46501;-83
2023/10/27 00:39:59;;;;;;;5.83;1.67;;;10.90;61.40;;;;;;5033125;28;48136;-81
2023/10/27 00:42:25;;;;;;;3.60;2.00;;;10.90;61.40;;;;;;5028011;28;46736;-81
2023/10/27 00:44:51;;;;;;;3.73;1.40;;;10.90;61.40;;;;;;5035657;28;46428;-81
2023/10/27 00:47:16;;;;;;;4.90;1.40;;;10.80;61.50;;;;;;5027943;28;46702;-81
2023/10/27 00:49:43;;;;;;;4.00;1.50;;;10.90;61.80;;;;;;5029767;28;47022;-82
2023/10/27 00:52:09;;;;;;;2.47;1.33;;;10.60;62.00;;;;;;5035338;28;49278;-81
2023/10/27 00:54:36;;;;;;;4.30;1.87;;;10.50;62.10;;;;;;5029646;28;46488;-84
2023/10/27 00:57:02;;;;;;;6.57;1.60;;;10.30;61.10;;;;;;5029170;28;46229;-80
2023/10/27 00:59:28;;;;;;;3.13;1.50;;;10.30;62.30;;;;;;5029627;28;46504;-82
2023/10/27 01:01:53;;;;;;;4.47;1.40;;;10.30;62.30;;;;;;5032161;28;45824;-84
2023/10/27 01:04:19;;;;;;;7.87;2.10;;;10.20;63.50;;;;;;5031030;28;45831;-84
2023/10/27 01:06:45;;;;;;;7.23;1.50;;;10.30;62.30;;;;;;5031897;28;46381;-83
2023/10/27 01:09:11;;;;;;;5.47;1.50;;;10.30;62.20;;;;;;5037338;28;46535;-78
2023/10/27 01:11:38;;;;;;;4.60;1.43;;;10.30;62.20;;;;;;5031730;28;47293;-81
2023/10/27 01:14:03;;;;;;;6.03;1.47;;;10.30;61.80;;;;;;5030047;28;45913;-84
2023/10/27 01:16:29;;;;;;;5.10;1.30;;;10.30;61.90;;;;;;5030803;28;46588;-82
2023/10/27 01:18:55;;;;;;;5.83;1.60;;;10.30;61.80;;;;;;5036643;28;46529;-82
2023/10/27 01:21:20;;;;;;;5.70;1.70;;;10.40;61.40;;;;;;5033487;28;46504;-81
2023/10/27 01:23:46;;;;;;;8.23;1.47;;;10.50;61.20;;;;;;5035778;28;45933;-81
2023/10/27 01:26:11;;;;;;;5.23;1.40;;;10.50;61.00;;;;;;5037513;28;45902;-84
2023/10/27 01:28:37;;;;;;;4.47;1.50;;;10.60;61.00;;;;;;5037376;28;46376;-82
2023/10/27 01:31:03;;;;;;;5.90;1.50;;;10.60;61.00;;;;;;5036214;28;46421;-83
2023/10/27 01:33:28;;;;;;;3.70;1.30;;;10.60;60.90;;;;;;5038604;28;46770;-82
2023/10/27 01:35:54;;;;;;;6.33;1.67;;;10.70;61.00;;;;;;5039383;28;46393;-81
2023/10/27 01:38:20;;;;;;;9.27;1.40;;;10.60;61.00;;;;;;5038477;28;46433;-83
2023/10/27 01:40:46;;;;;;;5.27;1.40;;;10.70;61.10;;;;;;5036305;28;46498;-82
2023/10/27 01:43:11;;;;;;;3.93;1.50;;;10.60;61.30;;;;;;5041061;28;46494;-82
2023/10/27 01:45:37;;;;;;;6.27;1.53;;;10.60;61.60;;;;;;5044613;28;45903;-82
2023/10/27 01:48:03;;;;;;;4.63;1.27;;;10.60;61.60;;;;;;5038291;28;46440;-83
2023/10/27 01:50:28;;;;;;;5.10;1.70;;;10.50;61.40;;;;;;5037586;28;46495;-83
2023/10/27 01:52:54;;;;;;;9.87;1.40;;;10.50;61.70;;;;;;5040483;28;46016;-82
2023/10/27 01:55:19;;;;;;;3.90;1.50;;;10.50;62.00;;;;;;5034182;28;46527;-82
2023/10/27 01:57:45;;;;;;;3.30;1.33;;;10.50;61.80;;;;;;5028880;28;46829;-83
2023/10/27 02:00:11;;;;;;;6.90;1.53;;;10.50;62.00;;;;;;5030768;28;46471;-84
2023/10/27 02:02:38;;;;;;;7.50;1.50;;;10.50;61.90;;;;;;5033848;28;47119;-81
2023/10/27 02:05:04;;;;;;;8.33;1.70;;;10.50;61.90;;;;;;5037340;28;46772;-82
2023/10/27 02:07:30;;;;;;;5.27;1.80;;;10.50;61.70;;;;;;5031131;28;46631;-81
2023/10/27 02:09:59;;;;;;;4.33;1.40;;;10.60;61.70;;;;;;5030506;28;46442;-83
2023/10/27 02:12:25;;;;;;;7.27;1.77;;;10.60;61.80;;;;;;5030994;28;46483;-82
2023/10/27 02:14:51;;;;;;;4.20;1.80;;;10.60;61.70;;;;;;5027426;28;46498;-82
2023/10/27 02:17:17;;;;;;;4.50;1.40;;;10.60;61.70;;;;;;5030753;28;47440;-86
2023/10/27 02:19:43;;;;;;;4.10;1.80;;;10.70;61.70;;;;;;5029168;28;46502;-83
2023/10/27 02:22:08;;;;;;;5.90;1.70;;;10.70;61.70;;;;;;5040698;28;46575;-83
2023/10/27 02:24:34;;;;;;;7.50;1.57;;;10.70;61.70;;;;;;5032445;28;46351;-85
2023/10/27 02:27:00;;;;;;;3.63;1.37;;;10.70;60.80;;;;;;5040568;28;46547;-84
2023/10/27 02:29:26;;;;;;;7.60;1.70;;;10.70;61.90;;;;;;5039183;28;46377;-85
2023/10/27 02:31:51;;;;;;;4.43;1.93;;;10.70;61.80;;;;;;5044615;28;46540;-86
2023/10/27 02:34:17;;;;;;;5.97;1.60;;;10.70;61.70;;;;;;5036762;28;46378;-82
2023/10/27 02:36:43;;;;;;;4.00;1.23;;;10.70;61.80;;;;;;5038410;28;46663;-84
2023/10/27 02:39:08;;;;;;;8.90;2.13;;;10.70;61.80;;;;;;5040757;28;46487;-82
2023/10/27 02:41:35;;;;;;;11.20;1.43;;;10.70;61.90;;;;;;5043102;28;46368;-82
2023/10/27 02:44:01;;;;;;;5.97;1.77;;;10.70;62.10;;;;;;5041873;28;45893;-85
2023/10/27 02:46:27;;;;;;;9.47;1.90;;;10.60;62.30;;;;;;5038430;28;46532;-84
2023/10/27 02:48:52;;;;;;;5.77;1.50;;;10.60;62.40;;;;;;5040844;28;46461;-85
2023/10/27 02:51:18;;;;;;;7.27;1.60;;;10.50;62.30;;;;;;5037558;28;46360;-85
2023/10/27 02:53:44;;;;;;;5.67;1.43;;;10.50;62.30;;;;;;5035346;28;46580;-83
2023/10/27 02:56:10;;;;;;;4.37;1.47;;;10.70;62.60;;;;;;5038952;28;46526;-83
2023/10/27 02:58:36;;;;;;;6.93;1.50;;;10.50;62.30;;;;;;5038584;28;46450;-83
2023/10/27 03:01:14;;;;;;;4.03;1.50;;;10.50;62.30;;;;;;5037513;28;46554;-84
2023/10/27 03:03:41;;;;;;;4.27;1.10;;;10.60;62.40;;;;;;5038400;28;46403;-83
2023/10/27 03:06:06;;;;;;;3.13;1.13;;;10.70;62.50;;;;;;5038705;28;48702;-85
2023/10/27 03:08:33;;;;;;;4.10;1.60;;;10.60;62.40;;;;;;5044376;28;46286;-84
2023/10/27 03:10:58;;;;;;;3.57;1.20;;;10.50;62.30;;;;;;5041568;28;46392;-84
2023/10/27 03:13:24;;;;;;;4.60;1.50;;;10.60;62.40;;;;;;5034789;28;46399;-86
2023/10/27 03:15:49;;;;;;;5.20;1.30;;;10.70;62.40;;;;;;5034718;28;46441;-84
2023/10/27 03:18:15;;;;;;;5.83;1.60;;;10.60;62.30;;;;;;5036286;28;46810;-84
2023/10/27 03:20:41;;;;;;;5.70;1.70;;;10.60;62.40;;;;;;5036018;28;46381;-83
2023/10/27 03:23:06;;;;;;;5.33;1.37;;;10.60;62.30;;;;;;5039183;28;46781;-85
2023/10/27 03:25:32;;;;;;;5.33;1.63;;;10.60;62.10;;;;;;5035996;28;47344;-85
2023/10/27 03:27:57;;;;;;;9.53;1.73;;;10.60;62.00;;;;;;5040537;28;46502;-85
2023/10/27 03:30:24;;;;;;;6.20;1.30;;;10.60;62.10;;;;;;5045084;28;46523;-84
2023/10/27 03:32:50;;;;;;;7.33;1.47;;;10.70;62.20;;;;;;5041167;28;46860;-82
2023/10/27 03:35:16;;;;;;;3.33;1.50;;;10.60;62.20;;;;;;5044715;28;46634;-83
2023/10/27 03:37:41;;;;;;;6.00;1.57;;;10.70;62.20;;;;;;5044917;28;47195;-85
2023/10/27 03:40:07;;;;;;;8.60;1.60;;;10.80;62.20;;;;;;5045598;28;46375;-82
2023/10/27 03:42:33;;;;;;;5.20;1.53;;;10.70;62.00;;;;;;5034906;28;46436;-86
2023/10/27 03:44:59;;;;;;;2.67;1.30;;;10.70;61.70;;;;;;5034668;28;46211;-85
2023/10/27 03:47:25;;;;;;;8.20;1.33;;;10.80;62.80;;;;;;5040518;28;45790;-83
2023/10/27 03:49:51;;;;;;;4.30;1.50;;;10.70;61.50;;;;;;5038231;28;46410;-83
2023/10/27 03:52:17;;;;;;;4.73;1.70;;;10.70;61.40;;;;;;5045926;28;46966;-86
2023/10/27 03:54:43;;;;;;;4.33;1.60;;;10.70;61.40;;;;;;5064844;28;48151;-84
2023/10/27 03:57:09;;;;;;;3.77;1.43;;;10.80;61.70;;;;;;5031689;28;46838;-81
2023/10/27 03:59:34;;;;;;;5.47;1.60;;;10.60;61.70;;;;;;5039274;28;46872;-86
2023/10/27 04:02:00;;;;;;;5.10;1.83;;;10.60;61.70;;;;;;5029546;28;46831;-82
2023/10/27 04:04:26;;;;;;;4.23;1.60;;;10.60;61.80;;;;;;5029538;28;47096;-83
2023/10/27 04:06:53;;;;;;;5.43;1.77;;;10.60;61.90;;;;;;5027488;28;46503;-83
2023/10/27 04:09:19;;;;;;;7.57;2.00;;;10.60;61.80;;;;;;5029535;28;46562;-83
2023/10/27 04:11:46;;;;;;;6.57;1.80;;;10.50;61.90;;;;;;5031958;28;46428;-84
2023/10/27 04:14:11;;;;;;;4.37;1.70;;;10.60;62.10;;;;;;5036966;28;48276;-84
2023/10/27 04:16:37;;;;;;;5.20;2.50;;;10.60;62.00;;;;;;5034133;28;46281;-85
2023/10/27 04:19:03;;;;;;;7.70;1.90;;;10.60;61.90;;;;;;5037684;28;46468;-85
2023/10/27 04:21:29;;;;;;;4.40;1.60;;;10.70;62.00;;;;;;5031197;28;46421;-85
2023/10/27 04:23:55;;;;;;;6.27;2.00;;;10.60;62.00;;;;;;5031441;28;46717;-84
2023/10/27 04:26:21;;;;;;;4.13;1.47;;;10.70;62.00;;;;;;5032806;28;46567;-84
2023/10/27 04:28:46;;;;;;;3.37;1.70;;;10.70;61.90;;;;;;5030374;28;47548;-83
2023/10/27 04:31:12;;;;;;;4.23;1.47;;;10.70;61.80;;;;;;5032045;28;46475;-84
2023/10/27 04:33:38;;;;;;;6.60;1.47;;;10.60;62.90;;;;;;5034580;28;49217;-84
2023/10/27 04:36:05;;;;;;;4.30;1.60;;;10.70;61.60;;;;;;5026595;28;46359;-83
2023/10/27 04:38:30;;;;;;;4.43;2.07;;;10.70;61.50;;;;;;5028951;28;46616;-85
2023/10/27 04:40:56;;;;;;;5.30;1.60;;;10.80;61.70;;;;;;5028973;28;46544;-85
2023/10/27 04:43:22;;;;;;;6.60;1.83;;;10.80;61.70;;;;;;5031211;28;47182;-84
2023/10/27 04:45:47;;;;;;;6.20;1.40;;;10.80;61.70;;;;;;5030842;28;46571;-82
2023/10/27 04:48:13;;;;;;;6.30;1.80;;;10.80;61.80;;;;;;5031229;28;47192;-81
2023/10/27 04:50:39;;;;;;;6.07;1.90;;;10.80;61.90;;;;;;5029885;28;47231;-84
2023/10/27 04:53:05;;;;;;;3.83;1.43;;;10.80;61.90;;;;;;5036493;28;48504;-83
2023/10/27 04:55:30;;;;;;;3.77;1.77;;;10.80;61.80;;;;;;5028052;28;47231;-84
2023/10/27 04:57:56;;;;;;;10.20;1.70;;;10.90;61.70;;;;;;5027566;28;45899;-82
2023/10/27 05:00:21;;;;;;;5.53;2.20;;;10.90;61.90;;;;;;5026183;28;46561;-82
2023/10/27 05:02:47;;;;;;;4.40;1.50;;;10.90;61.80;;;;;;5030024;28;48228;-85
2023/10/27 05:05:13;;;;;;;3.33;1.70;;;10.90;62.00;;;;;;5031388;28;46503;-85
2023/10/27 05:07:39;;;;;;;7.57;1.90;;;10.90;62.00;;;;;;5034289;28;45884;-84
2023/10/27 05:10:08;;;;;;;5.03;1.73;;;10.90;63.30;;;;;;5031560;28;46941;-82
2023/10/27 05:12:36;;;;;;;7.10;1.80;;;10.90;62.00;;;;;;5032821;28;48457;-82
2023/10/27 05:15:03;;;;;;;5.00;2.10;;;11.00;62.30;;;;;;5030670;28;46523;-83
2023/10/27 05:17:29;;;;;;;6.20;2.00;;;11.10;62.20;;;;;;5034680;28;46814;-83
2023/10/27 05:19:54;;;;;;;5.67;2.30;;;10.90;61.80;;;;;;5033842;28;46613;-82
2023/10/27 05:22:21;;;;;;;8.33;2.77;;;10.90;61.90;;;;;;5033556;28;45908;-83
2023/10/27 05:24:47;;;;;;;4.20;2.20;;;11.00;62.00;;;;;;5033797;28;46801;-83
2023/10/27 05:27:12;;;;;;;5.60;2.00;;;11.00;60.80;;;;;;5033699;28;46940;-85
2023/10/27 05:29:38;;;;;;;7.90;2.50;;;10.90;61.70;;;;;;5050391;28;46583;-85
2023/10/27 05:32:03;;;;;;;6.47;2.40;;;11.00;61.90;;;;;;5035051;28;47073;-84
2023/10/27 05:34:29;;;;;;;5.13;2.37;;;10.90;61.90;;;;;;5030449;28;46828;-83
2023/10/27 05:36:55;;;;;;;4.40;2.60;;;10.90;62.00;;;;;;5026853;28;46499;-82
2023/10/27 05:39:21;;;;;;;8.47;3.03;;;11.10;62.10;;;;;;5032396;28;46655;-84
2023/10/27 05:41:47;;;;;;;7.10;2.93;;;11.00;62.00;;;;;;5026598;28;47139;-83
2023/10/27 05:44:15;;;;;;;8.77;2.63;;;11.00;62.10;;;;;;5034750;28;46510;-83
2023/10/27 05:46:41;;;;;;;5.40;2.70;;;11.00;61.90;;;;;;5025905;28;46412;-84
2023/10/27 05:49:07;;;;;;;12.60;3.43;;;11.00;62.10;;;;;;5029961;28;46485;-84
2023/10/27 05:51:35;;;;;;;8.63;3.60;;;11.00;62.20;;;;;;5025944;28;46798;-84
2023/10/27 05:54:02;;;;;;;11.00;6.43;;;11.00;62.10;;;;;;5030266;28;45905;-84
2023/10/27 05:56:28;;;;;;;9.70;5.43;;;10.90;62.00;;;;;;5026721;28;46465;-84
2023/10/27 05:58:54;;;;;;;8.17;5.50;;;11.00;63.40;;;;;;5027847;28;46379;-82
2023/10/27 06:01:20;;;;;;;15.27;8.77;;;11.00;62.10;;;;;;5029434;28;49707;-83
2023/10/27 06:03:46;;;;;;;10.07;5.37;;;10.90;62.20;;;;;;5032057;28;46772;-83
2023/10/27 06:06:12;;;;;;;14.33;9.20;;;11.00;62.20;;;;;;5033146;28;45870;-86
2023/10/27 06:08:42;;;;;;;11.50;8.20;;;11.00;62.10;;;;;;5030972;28;46573;-86
2023/10/27 06:11:08;;;;;;;15.80;9.63;;;11.00;62.30;;;;;;5031088;28;48731;-84
2023/10/27 06:13:34;;;;;;;17.20;9.40;;;11.00;62.30;;;;;;5028854;28;45827;-80
2023/10/27 06:16:00;;;;;;;49.10;21.70;;;11.00;62.40;;;;;;5033770;28;46813;-81
2023/10/27 06:18:25;;;;;;;11.30;7.13;;;11.10;62.40;;;;;;5034661;28;46294;-81
2023/10/27 06:20:51;;;;;;;15.07;8.40;;;11.10;62.40;;;;;;5028930;28;46580;-83
2023/10/27 06:23:16;;;;;;;8.80;5.53;;;11.30;62.70;;;;;;5031822;28;46836;-90
2023/10/27 06:25:42;;;;;;;9.80;5.80;;;11.20;62.60;;;;;;5029023;28;46923;-86
2023/10/27 06:28:08;;;;;;;9.10;5.20;;;11.20;62.40;;;;;;5025883;28;46563;-88
2023/10/27 06:30:33;;;;;;;8.70;4.43;;;11.30;62.60;;;;;;5028111;28;46090;-83
2023/10/27 06:32:59;;;;;;;8.50;6.20;;;11.20;62.50;;;;;;5027099;28;46516;-83
2023/10/27 06:35:25;;;;;;;9.70;6.40;;;11.20;62.60;;;;;;5025839;28;46533;-82
2023/10/27 06:37:51;;;;;;;8.90;5.50;;;11.30;62.90;;;;;;5031699;28;46710;-83
2023/10/27 06:40:17;;;;;;;11.77;6.53;;;11.30;63.00;;;;;;5029606;28;47749;-84
2023/10/27 06:42:42;;;;;;;26.30;15.80;;;11.30;62.90;;;;;;5027799;28;46678;-84
2023/10/27 06:45:08;;;;;;;36.23;19.00;;;11.40;63.00;;;;;;5031699;28;46547;-84
2023/10/27 06:47:35;;;;;;;15.20;9.70;;;11.50;62.90;;;;;;5029252;28;46490;-84
2023/10/27 06:50:04;;;;;;;20.30;11.77;;;11.60;62.70;;;;;;5025960;28;47024;-83
2023/10/27 06:52:31;;;;;;;12.83;8.97;;;11.60;62.50;;;;;;5028679;28;46779;-85
2023/10/27 06:54:57;;;;;;;26.17;17.30;;;11.70;62.40;;;;;;5036880;28;46641;-83
2023/10/27 06:57:22;;;;;;;24.70;15.30;;;11.70;62.30;;;;;;5032384;28;46337;-84
2023/10/27 06:59:48;;;;;;;14.93;10.07;;;11.70;62.40;;;;;;5033210;28;48078;-83
2023/10/27 07:02:14;;;;;;;18.73;11.73;;;11.70;62.40;;;;;;5033944;28;46966;-83
2023/10/27 07:04:40;;;;;;;19.20;11.17;;;11.80;62.60;;;;;;5032879;28;46473;-84
2023/10/27 07:07:06;;;;;;;16.03;8.47;;;12.30;63.20;;;;;;5034456;28;46619;-84
2023/10/27 07:09:32;;;;;;;11.60;8.00;;;11.90;63.80;;;;;;5037160;28;46369;-83
2023/10/27 07:12:00;;;;;;;15.37;10.40;;;11.90;62.70;;;;;;5039452;28;46581;-86
2023/10/27 07:14:26;;;;;;;24.20;14.13;;;11.90;62.60;;;;;;5037231;28;46632;-84
2023/10/27 07:16:54;;;;;;;15.00;9.70;;;12.10;62.80;;;;;;5031820;28;46601;-82
2023/10/27 07:19:20;;;;;;;20.80;11.90;;;12.00;62.80;;;;;;5031944;28;47545;-82
2023/10/27 07:21:46;;;;;;;17.17;9.83;;;12.00;62.90;;;;;;5036022;28;46631;-87
2023/10/27 07:24:11;;;;;;;5.47;4.13;;;12.00;63.10;;;;;;5032803;28;46435;-86
2023/10/27 07:26:37;;;;;;;5.60;3.97;;;11.90;63.30;;;;;;5030339;28;46577;-84
2023/10/27 07:29:03;;;;;;;4.30;2.83;;;11.90;63.60;;;;;;5029768;28;46466;-84
2023/10/27 07:31:29;;;;;;;4.33;3.20;;;11.90;63.80;;;;;;5030268;28;46551;-87
2023/10/27 07:33:55;;;;;;;4.57;2.57;;;12.00;63.80;;;;;;5045127;28;46763;-85
2023/10/27 07:36:21;;;;;;;4.47;2.00;;;12.10;63.90;;;;;;5028446;28;46503;-87
2023/10/27 07:38:49;;;;;;;2.83;1.70;;;12.10;63.90;;;;;;5026739;28;48692;-85
2023/10/27 07:41:14;;;;;;;2.70;1.57;;;12.20;63.90;;;;;;5030739;28;47006;-84
2023/10/27 07:43:40;;;;;;;2.37;1.10;;;12.20;63.90;;;;;;5025952;28;46411;-83
2023/10/27 07:46:05;;;;;;;2.33;1.40;;;12.30;64.00;;;;;;5039032;28;46640;-84
2023/10/27 07:48:32;;;;;;;3.40;2.10;;;12.50;64.00;;;;;;5031811;28;46785;-85
2023/10/27 07:50:57;;;;;;;3.77;1.00;;;12.30;63.90;;;;;;5033254;28;46609;-85
2023/10/27 07:53:25;;;;;;;1.70;1.00;;;12.30;64.20;;;;;;5034178;28;46535;-84
2023/10/27 07:55:50;;;;;;;2.07;1.10;;;12.20;64.60;;;;;;5027565;28;46871;-82
2023/10/27 07:58:16;;;;;;;1.60;0.80;;;12.20;64.90;;;;;;5034196;28;46574;-86
2023/10/27 08:00:42;;;;;;;1.50;0.80;;;12.10;64.90;;;;;;5031424;28;46811;-84
2023/10/27 08:03:07;;;;;;;1.73;0.90;;;12.20;64.80;;;;;;5031440;28;46469;-86
2023/10/27 08:05:33;;;;;;;1.60;0.83;;;12.30;64.60;;;;;;5030661;28;46697;-83
2023/10/27 08:07:59;;;;;;;1.80;0.90;;;12.30;64.50;;;;;;5029813;28;46836;-84
2023/10/27 08:10:24;;;;;;;3.93;1.07;;;12.50;64.40;;;;;;5032828;28;46716;-85
2023/10/27 08:12:50;;;;;;;1.40;0.70;;;12.70;64.10;;;;;;5033767;28;46443;-84
2023/10/27 08:15:16;;;;;;;1.60;0.90;;;12.80;63.50;;;;;;5031409;28;46815;-86
2023/10/27 08:17:42;;;;;;;1.60;0.80;;;12.80;63.50;;;;;;5046786;28;48150;-83
2023/10/27 08:20:08;;;;;;;1.67;0.80;;;12.70;63.40;;;;;;5031605;28;46556;-86
2023/10/27 08:22:35;;;;;;;2.53;1.37;;;12.70;63.20;;;;;;5035333;28;45869;-81
2023/10/27 08:25:01;;;;;;;1.60;0.73;;;12.70;62.80;;;;;;5034285;28;46762;-83
2023/10/27 08:27:26;;;;;;;2.07;0.90;;;12.70;62.90;;;;;;5048609;28;48318;-82
2023/10/27 08:29:56;;;;;;;2.13;0.90;;;12.80;63.00;;;;;;5036343;28;45961;-84
2023/10/27 08:32:22;;;;;;;1.40;0.70;;;12.80;62.30;;;;;;5035285;28;46482;-83
2023/10/27 08:34:48;;;;;;;2.20;0.90;;;12.90;62.40;;;;;;5032079;28;46551;-83
2023/10/27 08:37:16;;;;;;;2.10;0.80;;;12.90;62.30;;;;;;5038732;28;46538;-85
2023/10/27 08:39:42;;;;;;;2.03;0.90;;;12.90;62.00;;;;;;5035033;28;46896;-86
2023/10/27 08:42:08;;;;;;;1.50;0.70;;;12.90;62.10;;;;;;5035785;28;46416;-82
2023/10/27 08:44:34;;;;;;;2.13;1.00;;;13.20;61.90;;;;;;5033758;28;47097;-81
2023/10/27 08:47:03;;;;;;;1.60;0.80;;;13.30;61.00;;;;;;5031731;28;46662;-83
2023/10/27 08:49:28;;;;;;;1.93;0.83;;;13.40;60.20;;;;;;5036724;28;46819;-87
2023/10/27 08:51:56;;;;;;;2.37;1.10;;;13.30;60.00;;;;;;5032936;28;46917;-85
2023/10/27 08:54:22;;;;;;;2.90;0.93;;;13.40;60.00;;;;;;5031590;28;46548;-83
2023/10/27 08:56:47;;;;;;;1.80;0.90;;;13.50;59.90;;;;;;5031185;28;46795;-85
2023/10/27 08:59:13;;;;;;;1.70;0.80;;;13.50;59.90;;;;;;5028850;28;46549;-83
2023/10/27 09:01:39;;;;;;;1.60;0.70;;;13.50;59.80;;;;;;5031927;28;46528;-82
2023/10/27 09:04:13;;;;;;;1.60;0.80;;;13.40;59.40;;;;;;5032106;28;46646;-84
2023/10/27 09:06:40;;;;;;;1.70;0.80;;;13.50;59.40;;;;;;5030248;28;47276;-86
2023/10/27 09:09:06;;;;;;;1.63;0.93;;;13.50;59.10;;;;;;5033569;28;46154;-84
2023/10/27 09:11:43;;;;;;;2.00;0.70;;;13.70;58.70;;;;;;5031074;28;46911;-82
2023/10/27 09:14:19;;;;;;;2.33;0.90;;;13.90;59.40;;;;;;5033923;28;46529;-84
2023/10/27 09:16:44;;;;;;;2.20;0.90;;;14.00;57.70;;;;;;5035153;28;46908;-83
2023/10/27 09:19:27;;;;;;;1.80;0.83;;;13.90;58.40;;;;;;5034897;28;46711;-85
2023/10/27 09:21:53;;;;;;;1.80;0.77;;;14.00;57.40;;;;;;5034794;28;46674;-86
2023/10/27 09:24:27;;;;;;;1.80;0.80;;;13.70;56.30;;;;;;5041747;28;46861;-85
2023/10/27 09:26:55;;;;;;;5.00;0.90;;;13.60;55.30;;;;;;5034181;28;47667;-85
2023/10/27 09:29:20;;;;;;;4.73;1.00;;;13.60;55.00;;;;;;5033249;28;46679;-84
2023/10/27 09:31:46;;;;;;;2.43;0.97;;;13.70;55.10;;;;;;5034057;28;46536;-84
2023/10/27 09:34:23;;;;;;;4.93;0.93;;;13.70;55.00;;;;;;5033396;28;46488;-85
2023/10/27 09:36:52;;;;;;;2.80;0.90;;;13.60;55.00;;;;;;5029539;28;46845;-87
2023/10/27 09:39:23;;;;;;;2.40;0.77;;;13.70;55.00;;;;;;5030327;28;46691;-84
2023/10/27 09:41:49;;;;;;;3.17;0.80;;;13.40;53.60;;;;;;5032401;28;46569;-87
2023/10/27 09:44:18;;;;;;;2.40;0.83;;;13.30;53.20;;;;;;5029755;28;46743;-88
2023/10/27 09:46:51;;;;;;;2.37;0.97;;;13.30;52.30;;;;;;5029600;28;47038;-86
2023/10/27 09:49:30;;;;;;;3.40;0.90;;;13.30;52.10;;;;;;5029416;28;46753;-87
2023/10/27 09:51:59;;;;;;;2.57;0.83;;;13.50;51.70;;;;;;5030039;28;46647;-86
2023/10/27 09:54:30;;;;;;;2.37;1.07;;;13.60;51.10;;;;;;5036014;28;46542;-88
2023/10/27 09:57:04;;;;;;;2.13;0.90;;;13.60;50.90;;;;;;5039843;28;47833;-87
2023/10/27 09:59:30;;;;;;;3.50;0.90;;;13.70;50.00;;;;;;5032652;28;46818;-87
2023/10/27 10:02:02;;;;;;;6.10;1.13;;;13.50;48.70;;;;;;5030002;28;45898;-88
2023/10/27 10:04:52;;;;;;;3.73;1.10;;;13.50;49.00;;;;;;5034981;28;46317;-87
2023/10/27 10:07:30;;;;;;;3.30;0.90;;;13.40;48.30;;;;;;5037986;28;48578;-88
2023/10/27 10:09:56;;;;;;;2.90;1.17;;;13.50;47.00;;;;;;5030094;28;46421;-87
2023/10/27 10:12:22;;;;;;;2.17;0.90;;;13.70;46.80;;;;;;5029801;28;46446;-87
2023/10/27 10:14:48;;;;;;;8.50;1.10;;;14.00;45.40;;;;;;5028815;28;46662;-86
2023/10/27 10:17:37;;;;;;;2.40;0.90;;;14.00;44.40;;;;;;5034501;28;46506;-85
2023/10/27 10:20:05;;;;;;;3.90;1.00;;;13.90;44.00;;;;;;5045745;28;46539;-84
2023/10/27 10:22:37;;;;;;;3.80;0.90;;;13.90;43.90;;;;;;5035609;28;45916;-87
2023/10/27 10:25:18;;;;;;;3.10;1.00;;;14.00;43.90;;;;;;5035720;28;46897;-85
2023/10/27 10:28:08;;;;;;;3.33;1.03;;;14.00;43.80;;;;;;5028115;28;49400;-85
2023/10/27 10:44:13;;;;;;;7.57;1.00;;;13.90;35.40;;;;;;5074045;27;46481;-68
2023/10/27 10:46:39;;;;;;;3.13;1.00;;;13.80;37.20;;;;;;5053529;28;46464;-70
2023/10/27 10:49:05;;;;;;;5.87;0.90;;;13.80;37.70;;;;;;5050428;28;46859;-68
2023/10/27 10:51:36;;;;;;;6.70;1.83;;;13.80;37.80;;;;;;5055168;28;46433;-68
2023/10/27 10:54:02;;;;;;;5.37;1.37;;;13.90;37.70;;;;;;5056975;28;48283;-68
2023/10/27 10:56:27;;;;;;;5.37;1.23;;;14.00;37.60;;;;;;5056114;28;46640;-69
2023/10/27 10:58:54;;;;;;;2.83;0.90;;;14.00;37.40;;;;;;5056992;28;46878;-69
2023/10/27 11:01:21;;;;;;;3.13;1.30;;;13.90;37.50;;;;;;5057399;28;46370;-69
2023/10/27 11:03:52;;;;;;;4.73;1.30;;;13.90;37.60;;;;;;5066639;28;47078;-68
2023/10/27 11:06:25;;;;;;;2.13;0.87;;;13.90;37.60;;;;;;5051048;27;46483;-69
2023/10/27 11:08:51;;;;;;;4.80;1.10;;;13.90;37.60;;;;;;5054553;28;46796;-72
2023/10/27 11:11:18;;;;;;;2.60;1.10;;;13.90;37.80;;;;;;5051750;28;46810;-70
2023/10/27 11:13:49;;;;;;;6.70;1.20;;;14.00;37.70;;;;;;5050243;28;47386;-68
2023/10/27 11:16:23;;;;;;;10.20;1.10;;;14.00;37.80;;;;;;5057856;28;46762;-68
2023/10/27 11:18:53;;;;;;;5.50;1.00;;;14.10;37.90;;;;;;5054022;28;46522;-68
2023/10/27 11:21:23;;;;;;;5.30;1.10;;;14.10;37.80;;;;;;5053540;28;46500;-69
2023/10/27 11:26:08;;;;;;;2.73;1.20;;;14.00;36.40;;;;;;5096074;27;46436;-70
2023/10/27 11:28:44;;;;;;;5.40;1.10;;;14.00;38.70;;;;;;5082863;27;46683;-68
2023/10/27 11:31:12;;;;;;;3.60;1.07;;;14.10;36.40;;;;;;5083522;27;45994;-71
2023/10/27 11:34:00;;;;;;;2.10;0.80;;;14.00;36.10;;;;;;5082689;27;46705;-69
2023/10/27 11:36:27;;;;;;;2.00;0.90;;;14.00;37.10;;;;;;5089622;27;46922;-67
2023/10/27 11:38:53;;;;;;;5.20;1.00;;;14.00;37.20;;;;;;5085130;27;46462;-68
2023/10/27 11:41:19;;;;;;;6.07;1.70;;;14.10;36.80;;;;;;5085724;27;46393;-67
2023/10/27 11:43:45;;;;;;;7.60;1.30;;;14.00;36.70;;;;;;5084868;27;46453;-66
2023/10/27 11:46:20;;;;;;;3.30;1.20;;;13.90;37.20;;;;;;5080888;27;46530;-66
2023/10/27 11:48:46;;;;;;;4.47;1.70;;;13.90;36.50;;;;;;5080749;27;46690;-67
2023/10/27 11:51:12;;;;;;;3.00;0.90;;;13.80;36.50;;;;;;5086160;27;45790;-67
2023/10/27 11:53:43;;;;;;;2.67;1.10;;;13.80;36.80;;;;;;5083452;27;46845;-67
2023/10/27 11:56:09;;;;;;;3.57;0.90;;;13.70;36.20;;;;;;5082045;27;46812;-67
2023/10/27 11:58:35;;;;;;;4.33;1.10;;;13.90;36.10;;;;;;5087574;27;46520;-67
2023/10/27 12:01:01;;;;;;;3.77;1.10;;;14.10;35.00;;;;;;5084934;27;46371;-67
2023/10/27 12:03:26;;;;;;;3.27;1.10;;;13.90;33.20;;;;;;5085507;27;46691;-67
2023/10/27 12:05:52;;;;;;;1.80;0.90;;;13.70;34.10;;;;;;5082232;27;48045;-67
2023/10/27 12:08:18;;;;;;;6.43;1.00;;;13.90;34.40;;;;;;5088481;27;46577;-67
2023/10/27 12:10:44;;;;;;;1.90;0.90;;;14.30;35.10;;;;;;5083043;27;46476;-65
2023/10/27 12:13:09;;;;;;;2.63;0.90;;;14.60;33.40;;;;;;5086640;27;46394;-67
2023/10/27 12:15:36;;;;;;;8.13;1.27;;;15.00;32.60;;;;;;5079580;27;47096;-68
2023/10/27 12:18:03;;;;;;;3.50;1.10;;;14.90;31.70;;;;;;5089009;27;46486;-66
2023/10/27 12:20:30;;;;;;;2.67;0.70;;;14.80;31.60;;;;;;5087076;27;46733;-67
2023/10/27 12:22:56;;;;;;;2.40;0.73;;;14.60;30.30;;;;;;5085686;27;46451;-67
2023/10/27 12:25:22;;;;;;;4.17;1.53;;;14.60;31.10;;;;;;5084036;27;46592;-67
2023/10/27 12:27:47;;;;;;;2.57;0.80;;;14.30;31.30;;;;;;5081605;27;46485;-67
2023/10/27 12:30:17;;;;;;;3.53;0.87;;;14.40;31.90;;;;;;5087465;27;46405;-67
2023/10/27 12:32:44;;;;;;;5.30;1.20;;;14.40;32.00;;;;;;5080613;27;46442;-67
2023/10/27 12:35:11;;;;;;;1.80;0.73;;;14.40;32.50;;;;;;5083729;27;46454;-67
2023/10/27 12:37:36;;;;;;;2.20;1.00;;;14.30;32.70;;;;;;5070413;27;46476;-67
2023/10/27 12:40:04;;;;;;;3.50;1.07;;;14.20;32.90;;;;;;5075073;27;46854;-67
2023/10/27 12:42:30;;;;;;;3.50;1.00;;;14.30;33.30;;;;;;5072377;27;46677;-67
2023/10/27 12:44:57;;;;;;;2.13;0.90;;;14.40;33.20;;;;;;5070927;27;47262;-68
2023/10/27 12:47:22;;;;;;;4.53;1.10;;;14.40;33.00;;;;;;5068334;27;46432;-67
2023/10/27 12:49:48;;;;;;;2.73;0.90;;;14.50;34.20;;;;;;5070224;27;46875;-67
2023/10/27 12:52:14;;;;;;;2.53;1.00;;;14.50;33.30;;;;;;5066671;27;46519;-66
2023/10/27 12:54:40;;;;;;;2.00;0.90;;;14.60;33.50;;;;;;5066234;27;46440;-66
2023/10/27 12:57:06;;;;;;;2.73;1.20;;;14.70;33.40;;;;;;5070596;27;46362;-67
2023/10/27 12:59:31;;;;;;;4.00;1.13;;;14.90;33.00;;;;;;5072848;27;46457;-67